createdAt,value
2019-02-28T00:01:46.281Z,61.19
2019-02-28T00:04:12.727Z,61.85
2019-02-28T00:06:40.233Z,62.18
2019-02-28T00:09:09.219Z,62.43
2019-02-28T00:11:39.525Z,62.71
2019-02-28T00:14:06.023Z,63.01
2019-02-28T00:16:35.662Z,63.28
2019-02-28T00:19:02.714Z,63.52
2019-02-28T00:21:31.064Z,63.89
2019-02-28T00:23:58.453Z,64.03
2019-02-28T00:26:25.943Z,64.35
2019-02-28T00:28:53.343Z,64.65
2019-02-28T00:31:20.803Z,64.90
2019-02-28T00:33:48.698Z,65.30
2019-02-28T00:36:16.285Z,65.39
2019-02-28T00:38:45.559Z,65.84
2019-02-28T00:41:13.003Z,66.16
2019-02-28T00:43:40.483Z,66.28
2019-02-28T00:46:10.112Z,66.53
2019-02-28T00:48:37.224Z,66.92
2019-02-28T00:51:04.744Z,67.24
2019-02-28T00:53:32.378Z,67.44
2019-02-28T00:55:59.758Z,67.99
2019-02-28T00:58:28.864Z,68.10
2019-02-28T01:00:56.499Z,68.48
2019-02-28T01:03:27.417Z,68.61
2019-02-28T01:05:53.203Z,68.63
2019-02-28T01:08:22.131Z,68.73
2019-02-28T01:10:49.933Z,68.43
2019-02-28T01:13:17.353Z,68.24
2019-02-28T01:15:45.723Z,68.63
2019-02-28T01:18:13.315Z,68.52
2019-02-28T01:20:40.687Z,68.33
2019-02-28T01:23:08.213Z,68.49
2019-02-28T01:25:37.174Z,68.12
2019-02-28T01:28:04.958Z,67.97
2019-02-28T01:30:32.383Z,67.97
2019-02-28T01:32:59.813Z,67.86
2019-02-28T01:35:27.208Z,67.80
2019-02-28T01:37:54.676Z,67.83
2019-02-28T01:40:22.058Z,67.51
2019-02-28T01:42:53.914Z,67.43
2019-02-28T01:45:18.779Z,67.56
2019-02-28T01:47:46.233Z,67.64
2019-02-28T01:50:13.727Z,67.72
2019-02-28T01:52:44.846Z,67.75
2019-02-28T01:55:11.373Z,67.67
2019-02-28T01:57:42.507Z,67.92
2019-02-28T02:00:10.474Z,67.99
2019-02-28T02:02:38.971Z,67.79
2019-02-28T02:05:06.913Z,67.95
2019-02-28T02:07:35.123Z,68.18
2019-02-28T02:10:03.945Z,68.27
2019-02-28T02:12:32.469Z,68.18
2019-02-28T02:14:59.883Z,68.15
2019-02-28T02:17:27.403Z,68.18
2019-02-28T02:19:54.794Z,68.46
2019-02-28T02:22:22.243Z,68.49
2019-02-28T02:24:49.623Z,68.84
2019-02-28T02:27:19.540Z,68.82
2019-02-28T02:29:46.303Z,68.88
2019-02-28T02:32:13.758Z,69.04
2019-02-28T02:34:41.155Z,69.13
2019-02-28T02:37:08.533Z,69.58
2019-02-28T02:39:35.970Z,70.04
2019-02-28T02:42:09.979Z,70.09
2019-02-28T02:44:32.700Z,70.50
2019-02-28T02:47:00.155Z,70.67
2019-02-28T02:49:27.561Z,70.80
2019-02-28T02:51:54.935Z,71.04
2019-02-28T02:54:22.381Z,71.34
2019-02-28T02:56:49.798Z,71.55
2019-02-28T02:59:17.599Z,71.69
2019-02-28T03:01:44.990Z,71.65
2019-02-28T03:04:21.391Z,71.69
2019-02-28T03:06:45.863Z,71.78
2019-02-28T03:09:11.250Z,71.93
2019-02-28T03:11:38.753Z,72.18
2019-02-28T03:14:06.160Z,72.26
2019-02-28T03:16:34.635Z,72.42
2019-02-28T03:19:02.274Z,72.55
2019-02-28T03:21:29.670Z,72.51
2019-02-28T03:23:57.159Z,72.67
2019-02-28T03:26:24.591Z,72.92
2019-02-28T03:28:52.044Z,73.15
2019-02-28T03:31:19.544Z,73.21
2019-02-28T03:33:47.031Z,73.14
2019-02-28T03:36:15.828Z,73.36
2019-02-28T03:38:48.622Z,73.52
2019-02-28T03:41:17.642Z,73.73
2019-02-28T03:43:43.771Z,73.90
2019-02-28T03:46:11.706Z,74.05
2019-02-28T03:48:39.198Z,74.06
2019-02-28T03:51:06.605Z,74.15
2019-02-28T03:53:34.012Z,74.23
2019-02-28T03:56:01.387Z,74.60
2019-02-28T03:58:28.813Z,74.58
2019-02-28T04:00:56.195Z,74.87
2019-02-28T04:03:23.626Z,74.99
2019-02-28T04:05:51.048Z,74.94
2019-02-28T04:08:19.114Z,75.14
2019-02-28T04:10:46.778Z,75.28
2019-02-28T04:13:14.174Z,75.33
2019-02-28T04:15:49.567Z,75.61
2019-02-28T04:18:11.050Z,75.70
2019-02-28T04:20:38.456Z,75.83
2019-02-28T04:23:05.942Z,75.96
2019-02-28T04:25:33.383Z,76.00
2019-02-28T04:28:00.851Z,76.08
2019-02-28T04:30:32.429Z,76.17
2019-02-28T04:33:01.488Z,76.22
2019-02-28T04:35:29.159Z,76.29
2019-02-28T04:37:56.529Z,76.35
2019-02-28T04:40:26.774Z,76.43
2019-02-28T04:42:53.241Z,76.46
2019-02-28T04:45:23.325Z,76.54
2019-02-28T04:47:50.100Z,76.66
2019-02-28T04:50:18.123Z,76.81
2019-02-28T04:52:48.058Z,76.83
2019-02-28T04:55:14.908Z,76.87
2019-02-28T04:57:42.328Z,76.99
2019-02-28T05:00:09.998Z,76.95
2019-02-28T05:02:37.381Z,76.93
2019-02-28T05:05:04.948Z,77.27
2019-02-28T05:07:32.339Z,77.43
2019-02-28T05:09:59.873Z,77.60
2019-02-28T05:12:27.297Z,77.76
2019-02-28T05:14:55.320Z,77.95
2019-02-28T05:17:24.009Z,78.04
2019-02-28T05:19:51.443Z,78.18
2019-02-28T05:22:18.828Z,78.47
2019-02-28T05:24:46.273Z,78.53
2019-02-28T05:27:13.668Z,78.56
2019-02-28T05:29:43.898Z,78.69
2019-02-28T05:32:10.683Z,78.80
2019-02-28T05:34:38.100Z,78.90
2019-02-28T05:37:05.508Z,79.00
2019-02-28T05:39:32.979Z,79.20
2019-02-28T05:42:00.382Z,79.22
2019-02-28T05:44:28.089Z,79.37
2019-02-28T05:46:58.103Z,79.47
2019-02-28T05:49:25.923Z,79.52
2019-02-28T05:51:53.302Z,79.37
2019-02-28T05:54:20.761Z,79.73
2019-02-28T05:56:48.203Z,79.80
2019-02-28T05:59:15.562Z,80.10
2019-02-28T06:01:46.577Z,80.06
2019-02-28T06:04:12.316Z,80.23
2019-02-28T06:06:39.755Z,80.26
2019-02-28T06:09:07.142Z,80.34
2019-02-28T06:11:35.634Z,80.37
2019-02-28T06:14:03.372Z,80.24
2019-02-28T06:16:30.782Z,80.21
2019-02-28T06:18:58.176Z,80.22
2019-02-28T06:21:25.634Z,80.22
2019-02-28T06:23:53.059Z,80.33
2019-02-28T06:26:20.491Z,80.31
2019-02-28T06:28:47.909Z,80.30
2019-02-28T06:31:15.421Z,80.27
2019-02-28T06:33:43.036Z,80.15
2019-02-28T06:36:10.466Z,79.76
2019-02-28T06:38:37.871Z,79.37
2019-02-28T06:41:07.692Z,79.08
2019-02-28T06:43:34.576Z,78.43
2019-02-28T06:46:03.705Z,77.75
2019-02-28T06:48:31.262Z,77.31
2019-02-28T06:50:58.666Z,76.81
2019-02-28T06:53:27.150Z,76.77
2019-02-28T06:55:54.597Z,76.68
2019-02-28T06:58:22.021Z,76.40
2019-02-28T07:00:59.781Z,76.06
2019-02-28T07:03:23.101Z,75.97
2019-02-28T07:05:50.705Z,75.04
2019-02-28T07:08:24.448Z,75.29
2019-02-28T07:10:51.834Z,74.73
2019-02-28T07:13:19.255Z,74.21
2019-02-28T07:15:49.254Z,73.62
2019-02-28T07:18:18.829Z,72.89
2019-02-28T07:20:48.041Z,72.08
2019-02-28T07:23:15.553Z,71.50
2019-02-28T07:25:44.322Z,70.53
2019-02-28T07:28:12.371Z,69.70
2019-02-28T07:30:40.114Z,68.80
2019-02-28T07:33:10.569Z,69.32
2019-02-28T07:35:37.008Z,70.25
2019-02-28T07:38:04.566Z,72.06
2019-02-28T07:40:33.271Z,72.93
2019-02-28T07:43:01.011Z,73.12
2019-02-28T07:45:29.601Z,74.24
2019-02-28T07:47:57.806Z,74.67
2019-02-28T07:50:25.181Z,74.37
2019-02-28T07:52:53.272Z,74.64
2019-02-28T07:55:20.945Z,75.06
2019-02-28T07:57:54.235Z,74.63
2019-02-28T08:00:18.771Z,74.67
2019-02-28T08:02:46.705Z,74.57
2019-02-28T08:05:14.468Z,73.45
2019-02-28T08:07:42.229Z,72.90
2019-02-28T08:10:12.811Z,71.23
2019-02-28T08:12:41.135Z,69.33
2019-02-28T08:15:13.675Z,68.41
2019-02-28T08:17:43.852Z,68.84
2019-02-28T08:20:11.438Z,70.45
2019-02-28T08:22:39.110Z,69.90
2019-02-28T08:25:08.579Z,67.84
2019-02-28T08:27:36.447Z,65.70
2019-02-28T08:30:05.470Z,63.01
2019-02-28T08:32:33.875Z,61.02
2019-02-28T08:35:02.034Z,61.74
2019-02-28T08:37:29.760Z,61.87
2019-02-28T08:39:57.444Z,62.58
2019-02-28T08:42:25.144Z,62.76
2019-02-28T08:45:00.805Z,63.76
2019-02-28T08:47:28.425Z,65.02
2019-02-28T08:49:56.055Z,65.96
2019-02-28T08:52:32.885Z,66.61
2019-02-28T08:55:09.279Z,67.32
2019-02-28T08:57:37.266Z,66.62
2019-02-28T09:00:06.585Z,67.78
2019-02-28T09:02:34.185Z,67.74
2019-02-28T09:05:01.767Z,68.10
2019-02-28T09:07:29.365Z,67.64
2019-02-28T09:09:57.185Z,67.19
2019-02-28T09:12:24.704Z,68.05
2019-02-28T09:14:55.415Z,68.65
2019-02-28T09:17:23.671Z,68.84
2019-02-28T09:19:51.103Z,68.88
2019-02-28T09:22:18.499Z,68.13
2019-02-28T09:24:46.736Z,67.42
2019-02-28T09:27:15.873Z,66.69
2019-02-28T09:29:43.317Z,66.70
2019-02-28T09:32:13.523Z,65.69
2019-02-28T09:34:41.284Z,65.74
2019-02-28T09:37:08.857Z,67.23
2019-02-28T09:39:36.347Z,67.54
2019-02-28T09:42:03.967Z,67.55
2019-02-28T09:44:32.408Z,66.84
2019-02-28T09:47:00.012Z,66.61
2019-02-28T09:49:27.575Z,66.62
2019-02-28T09:51:54.947Z,66.42
2019-02-28T09:54:24.401Z,65.18
2019-02-28T09:56:51.717Z,64.91
2019-02-28T09:59:19.553Z,64.57
2019-02-28T10:01:46.947Z,64.72
2019-02-28T10:04:14.422Z,63.64
2019-02-28T10:06:41.909Z,64.35
2019-02-28T10:09:09.650Z,65.49
2019-02-28T10:11:37.254Z,65.80
2019-02-28T10:14:04.877Z,66.08
2019-02-28T10:16:32.414Z,66.71
2019-02-28T10:19:00.034Z,66.76
2019-02-28T10:21:27.574Z,66.91
2019-02-28T10:23:56.849Z,67.13
2019-02-28T10:26:25.635Z,67.22
2019-02-28T10:28:53.436Z,66.96
2019-02-28T10:31:22.853Z,66.61
2019-02-28T10:33:52.532Z,66.75
2019-02-28T10:36:20.095Z,67.10
2019-02-28T10:38:47.794Z,67.39
2019-02-28T10:41:15.522Z,66.96
2019-02-28T10:43:43.317Z,67.64
2019-02-28T10:46:13.321Z,67.07
2019-02-28T10:48:50.467Z,67.25
2019-02-28T10:51:14.089Z,67.55
2019-02-28T10:53:40.258Z,67.25
2019-02-28T10:56:07.887Z,67.62
2019-02-28T10:58:35.454Z,67.46
2019-02-28T11:01:07.564Z,67.42
2019-02-28T11:03:33.260Z,66.81
2019-02-28T11:06:00.994Z,66.88
2019-02-28T11:08:28.495Z,66.09
2019-02-28T11:10:56.118Z,66.29
2019-02-28T11:13:23.717Z,65.54
2019-02-28T11:15:51.454Z,65.45
2019-02-28T11:18:19.493Z,65.08
2019-02-28T11:20:47.094Z,65.28
2019-02-28T11:23:15.872Z,65.02
2019-02-28T11:25:43.974Z,65.18
2019-02-28T11:28:11.634Z,65.50
2019-02-28T11:30:44.005Z,65.04
2019-02-28T11:33:09.115Z,64.53
2019-02-28T11:35:36.794Z,64.48
2019-02-28T11:38:05.094Z,64.56
2019-02-28T11:40:33.605Z,64.08
2019-02-28T11:43:02.726Z,63.51
2019-02-28T11:45:32.226Z,63.50
2019-02-28T11:48:02.275Z,63.57
2019-02-28T11:50:29.974Z,62.81
2019-02-28T11:53:03.261Z,62.89
2019-02-28T11:55:27.250Z,62.45
2019-02-28T11:57:54.924Z,62.30
2019-02-28T12:00:26.454Z,61.98
2019-02-28T12:02:59.919Z,61.84
2019-02-28T12:05:23.783Z,61.37
2019-02-28T12:07:51.274Z,61.37
2019-02-28T12:10:19.155Z,60.52
2019-02-28T12:12:46.754Z,60.14
2019-02-28T12:15:15.814Z,60.58
2019-02-28T12:17:43.454Z,61.02
2019-02-28T12:20:11.935Z,61.02
2019-02-28T12:22:39.676Z,60.95
2019-02-28T12:25:08.529Z,60.91
2019-02-28T12:27:36.176Z,60.65
2019-02-28T12:30:05.095Z,60.65
2019-02-28T12:32:33.019Z,60.86
2019-02-28T12:35:02.295Z,60.94
2019-02-28T12:37:36.474Z,60.68
2019-02-28T12:40:49.917Z,59.54
2019-02-28T12:43:30.255Z,60.39
2019-02-28T12:46:00.122Z,61.09
2019-02-28T12:48:27.616Z,61.17
2019-02-28T12:50:56.403Z,61.11
2019-02-28T12:53:35.255Z,61.48
2019-02-28T12:56:25.214Z,61.40
2019-02-28T12:59:02.815Z,61.68
2019-02-28T13:01:58.514Z,62.04
2019-02-28T13:04:39.387Z,62.23
2019-02-28T13:07:15.273Z,62.16
2019-02-28T13:10:06.947Z,61.07
2019-02-28T13:12:35.145Z,61.11
2019-02-28T13:15:46.805Z,61.38
2019-02-28T13:18:34.865Z,61.26
2019-02-28T13:21:43.614Z,61.88
2019-02-28T13:24:16.306Z,62.66
2019-02-28T13:28:17.678Z,63.01
2019-02-28T13:32:04.020Z,63.32
2019-02-28T13:41:22.111Z,64.11
2019-02-28T13:44:36.290Z,64.43
2019-02-28T13:47:58.062Z,64.69
2019-02-28T13:51:40.696Z,64.46
2019-02-28T13:54:23.509Z,64.02
2019-02-28T13:57:13.626Z,63.85
2019-02-28T14:00:24.020Z,63.61
2019-02-28T14:02:56.609Z,63.38
2019-02-28T14:06:19.794Z,63.17
2019-02-28T14:08:47.764Z,63.14
2019-02-28T14:12:05.690Z,63.13
2019-02-28T14:14:42.291Z,62.64
2019-02-28T14:18:11.588Z,62.86
2019-02-28T14:20:37.933Z,62.42
2019-02-28T14:23:05.725Z,62.96
2019-02-28T14:25:39.794Z,62.63
2019-02-28T14:28:06.494Z,62.07
2019-02-28T14:31:32.980Z,62.65
2019-02-28T14:33:16.187Z,62.24
2019-02-28T14:35:57.894Z,62.17
2019-02-28T14:38:51.465Z,62.43
2019-02-28T14:44:58.970Z,63.36
2019-02-28T14:47:28.523Z,63.85
2019-02-28T14:51:07.467Z,64.30
2019-02-28T14:53:49.128Z,64.49
2019-02-28T14:56:49.056Z,64.85
2019-02-28T15:00:42.301Z,65.05
2019-02-28T15:04:17.004Z,64.94
2019-02-28T15:07:59.033Z,64.83
2019-02-28T15:11:10.025Z,64.38
2019-02-28T15:14:37.305Z,64.27
2019-02-28T15:17:38.667Z,64.65
2019-02-28T15:20:31.701Z,64.15
2019-02-28T15:23:02.783Z,64.05
2019-02-28T15:25:35.782Z,63.98
2019-02-28T15:28:19.844Z,64.14
2019-02-28T15:34:25.237Z,63.92
2019-02-28T15:37:04.243Z,64.01
2019-02-28T15:39:36.808Z,64.23
2019-02-28T15:43:41.927Z,64.19
2019-02-28T15:46:01.805Z,64.37
2019-02-28T15:55:50.194Z,65.47
2019-02-28T15:58:42.322Z,65.52
2019-02-28T16:02:09.445Z,65.68
2019-02-28T16:05:05.689Z,65.85
2019-02-28T16:08:21.951Z,65.80
2019-02-28T16:11:27.721Z,65.94
2019-02-28T16:14:14.288Z,66.22
2019-02-28T16:17:14.644Z,66.51
2019-02-28T16:19:48.568Z,66.48
2019-02-28T16:23:16.223Z,66.82
2019-02-28T16:25:46.888Z,67.09
2019-02-28T16:28:29.806Z,67.24
2019-02-28T16:31:18.736Z,67.47
2019-02-28T16:33:52.161Z,67.44
2019-02-28T16:40:57.701Z,67.44
2019-02-28T16:48:06.998Z,67.93
2019-02-28T16:51:03.106Z,67.95
2019-02-28T17:01:45.906Z,68.09
2019-02-28T17:05:28.164Z,68.12
2019-02-28T17:20:22.176Z,68.73
2019-02-28T17:22:52.209Z,69.11
2019-02-28T17:25:39.800Z,70.16
2019-02-28T17:28:23.997Z,71.68
2019-02-28T17:31:12.506Z,72.74
2019-02-28T17:34:31.241Z,73.35
2019-02-28T17:37:36.213Z,73.89
2019-02-28T17:40:09.254Z,74.27
2019-02-28T17:43:04.113Z,74.34
2019-02-28T17:46:22.767Z,74.59
2019-02-28T17:49:50.874Z,74.78
2019-02-28T17:53:18.472Z,74.91
2019-02-28T17:58:06.922Z,75.07
2019-02-28T18:00:57.468Z,75.21
2019-02-28T18:08:27.815Z,74.97
2019-02-28T18:12:05.967Z,74.42
2019-02-28T18:18:53.234Z,74.44
2019-02-28T18:22:12.935Z,74.42
2019-02-28T18:25:32.754Z,74.23
2019-02-28T18:28:58.914Z,74.27
2019-02-28T18:32:12.654Z,74.57
2019-02-28T18:34:48.923Z,74.62
2019-02-28T18:37:17.422Z,74.66
2019-02-28T18:40:10.576Z,74.79
2019-02-28T18:42:54.054Z,75.15
2019-02-28T18:45:38.186Z,75.31
2019-02-28T18:48:25.745Z,75.52
2019-02-28T18:51:20.394Z,75.72
2019-02-28T18:53:50.938Z,75.93
2019-02-28T18:56:39.307Z,76.00
2019-02-28T18:59:16.404Z,75.99
2019-02-28T19:01:50.463Z,76.25
2019-02-28T19:04:24.645Z,76.54
2019-02-28T19:06:56.102Z,76.65
2019-02-28T19:09:25.162Z,76.59
2019-02-28T19:11:59.295Z,77.63
2019-02-28T19:14:38.065Z,79.24
2019-02-28T19:17:10.771Z,81.01
2019-02-28T19:19:39.262Z,82.67
2019-02-28T19:22:07.534Z,83.78
2019-02-28T19:24:36.242Z,84.54
2019-02-28T19:27:05.788Z,85.09
2019-02-28T19:29:34.106Z,85.33
2019-02-28T19:32:02.255Z,85.81
2019-02-28T19:34:30.509Z,85.86
2019-02-28T19:36:59.714Z,85.86
2019-02-28T19:39:27.695Z,85.67
2019-02-28T19:41:55.834Z,85.59
2019-02-28T19:44:23.835Z,86.14
2019-02-28T19:46:52.094Z,85.81
2019-02-28T19:49:20.440Z,85.42
2019-02-28T19:51:48.878Z,84.60
2019-02-28T19:54:18.038Z,84.72
2019-02-28T19:56:46.683Z,84.52
2019-02-28T19:59:15.455Z,84.58
2019-02-28T20:01:45.333Z,85.07
2019-02-28T20:04:15.390Z,84.38
2019-02-28T20:06:43.902Z,84.37
2019-02-28T20:09:13.554Z,84.55
2019-02-28T20:11:41.594Z,84.30
2019-02-28T20:14:09.674Z,84.04
2019-02-28T20:16:38.014Z,83.81
2019-02-28T20:19:07.215Z,83.70
2019-02-28T20:21:35.295Z,83.83
2019-02-28T20:24:03.497Z,83.85
2019-02-28T20:26:31.622Z,84.10
2019-02-28T20:28:59.955Z,83.75
2019-02-28T20:31:29.854Z,83.87
2019-02-28T20:33:57.856Z,84.20
2019-02-28T20:36:27.142Z,83.49
2019-02-28T20:38:56.619Z,83.81
2019-02-28T20:41:24.676Z,83.43
2019-02-28T20:43:54.855Z,83.24
2019-02-28T20:46:22.934Z,83.01
2019-02-28T20:48:50.956Z,82.13
2019-02-28T20:51:19.479Z,82.11
2019-02-28T20:53:47.434Z,82.65
2019-02-28T20:56:15.594Z,82.77
2019-02-28T20:58:43.555Z,82.85
2019-02-28T21:01:11.948Z,83.42
2019-02-28T21:03:40.114Z,84.17
2019-02-28T21:06:08.155Z,84.33
2019-02-28T21:08:36.284Z,84.97
2019-02-28T21:11:04.414Z,85.58
2019-02-28T21:13:32.495Z,85.87
2019-02-28T21:16:00.776Z,86.14
2019-02-28T21:18:28.734Z,86.44
2019-02-28T21:20:56.694Z,86.74
2019-02-28T21:23:24.655Z,86.75
2019-02-28T21:25:52.665Z,87.03
2019-02-28T21:28:20.906Z,87.12
2019-02-28T21:30:49.054Z,87.10
2019-02-28T21:33:17.202Z,87.16
2019-02-28T21:35:45.237Z,87.31
2019-02-28T21:38:13.275Z,86.87
2019-02-28T21:40:41.274Z,86.96
2019-02-28T21:43:09.247Z,87.06
2019-02-28T21:45:37.315Z,87.17
2019-02-28T21:48:05.278Z,87.22
2019-02-28T21:50:32.894Z,87.27
2019-02-28T21:53:00.696Z,87.42
2019-02-28T21:55:28.235Z,87.35
2019-02-28T21:57:56.035Z,87.12
2019-02-28T22:00:23.874Z,87.55
2019-02-28T22:02:51.495Z,87.45
2019-02-28T22:05:19.197Z,87.49
2019-02-28T22:07:46.800Z,86.99
2019-02-28T22:10:14.576Z,87.16
2019-02-28T22:12:42.174Z,87.59
2019-02-28T22:15:11.974Z,87.49
2019-02-28T22:17:40.173Z,87.49
2019-02-28T22:20:09.015Z,87.67
2019-02-28T22:22:36.635Z,87.36
2019-02-28T22:25:04.387Z,86.98
2019-02-28T22:27:32.135Z,86.62
2019-02-28T22:30:02.294Z,86.72
2019-02-28T22:32:35.644Z,86.62
2019-02-28T22:35:25.774Z,86.83
2019-02-28T22:37:53.355Z,86.62
2019-02-28T22:40:20.895Z,86.11
2019-02-28T22:42:48.454Z,85.89
2019-02-28T22:45:17.214Z,85.96
2019-02-28T22:47:44.754Z,85.65
2019-02-28T22:50:13.154Z,85.35
2019-02-28T22:52:40.757Z,85.33
2019-02-28T22:55:08.594Z,85.04
2019-02-28T22:57:36.235Z,85.19
2019-02-28T23:00:08.434Z,85.15
2019-02-28T23:02:35.955Z,85.07
2019-02-28T23:05:03.671Z,85.21
2019-02-28T23:07:31.242Z,85.33
2019-02-28T23:09:58.814Z,85.55
2019-02-28T23:12:26.371Z,85.59
2019-02-28T23:14:56.751Z,85.57
2019-02-28T23:17:24.534Z,85.71
2019-02-28T23:19:52.117Z,86.20
2019-02-28T23:22:19.695Z,86.32
2019-02-28T23:24:47.455Z,86.38
2019-02-28T23:27:16.714Z,86.41
2019-02-28T23:30:00.545Z,86.57
2019-02-28T23:33:08.069Z,86.35
2019-02-28T23:35:49.173Z,86.33
2019-02-28T23:38:25.153Z,86.50
2019-02-28T23:41:03.109Z,86.44
2019-02-28T23:43:31.474Z,86.40
2019-02-28T23:45:59.454Z,86.42
2019-02-28T23:48:28.013Z,86.60
2019-02-28T23:51:05.154Z,86.75
2019-02-28T23:53:36.934Z,86.70
2019-02-28T23:56:04.792Z,86.60
2019-02-28T23:58:33.677Z,86.45
